Hlavní strana
METAR-TAF:

METAR-TAF

Letiště :

Vadsø, Norsko

zeměpisná šířka: 70-04N, zeměpisná délka: 029-51E, výška: 3 m

Aktuální stav počasí

Zpráva byla vytvořena před 20 minutami, v 17:50 UTC
Severoseverozápadní vítr 8 kt
Teplota -5°C
Vlhkost vzduchu 93%
Tlak 963 hPa
Viditelnost 10 km a více
Oblačno až skoro zataženo ve výšce 1100 ft

METAR: ENVD 231750Z 33008KT 9999 BKN011 M05/M06 Q0963

Čas: 19:10 (18:10 UTC)

Předpověď počasí

Zpráva byla vytvořena před 1 hodinou a 10 minutami, v 17:00 UTC
Předpověď platná od 23 v 18 UTC do 23 v 24 UTC
Západoseverozápadní vítr 8 kt
Viditelnost 10 km a více
Oblačno až skoro zataženo ve výšce 1200 ft
Dočasný
od 23 v 18 UTC do 23 v 24 UTC
Oblačno až skoro zataženo ve výšce 800 ft

TAF: ENVD 231700Z 2318/2324 30008KT 9999 BKN012 TEMPO 2318/2324 BKN008

Stav a předpovědi počasí z více než 4 000 letišť (zprávy METAR a TAF).

Červené a žluté tečky na mapě představují dostupné meteorologické stanice.

Když kurzor umístíte na tečku, zobrazí se název stanice.

Pak kliknutím zobrazíte stav a předpověď počasí.

Chcete-li změnit mapu, kliknutím na zelené tlačítko se znaménkem +mapu přiblížíte, kliknutím na zelené tlačítko se znaménkem – mapu oddálíte a kliknutím na zelené šipky přejdete na sousední mapy.


METAR-TAF: